Share

Kirksville, MO

2:39 AM CDT on April 23, 2014 (GMT -0500)
Kirksville Regional (KIRK) Elev 965 ft | 40.10 °N, 92.55 °W | Change Station

Current weather conditions updated 44 minutes ago

Mostly Cloudy
Mostly Cloudy
48 °F
Feels Like 48 °F
N
6
Wind Variable Wind from ENE
Sunrise 6:20 AM
Sunset 7:57 PM
Moon Last Quarter

Today is forecast to be nearly the same temperature as yesterday. Showers late tonight.

Pressure 30.06 in
Visibility 10.0 miles
Clouds Mostly Cloudy 10000 ft
Dew Point 33 °F
Humidity 56%
Rainfall 0.00 in
Snow Depth Not available.
UV 0 out of 16
Pollen 10.50 out of 12
Air Quality Not available.
Flu Activity Sporadic
METAR KIRK 230655Z AUTO 06005KT 10SM BKN100 09/01 A3005 RMK AO2 SLP179 T00890006

More Conditions Fewer Conditions

Pressure 30.06 in
Visibility 10.0 miles
Clouds Mostly Cloudy 10000 ft
Dew Point 33 °F
Humidity 56%
Rainfall 0.00 in
Snow Depth Not available.
UV 0 out of 16
Pollen 10.50 out of 12
Air Quality Not available.
Flu Activity Sporadic
METAR KIRK 230655Z AUTO 06005KT 10SM BKN100 09/01 A3005 RMK AO2 SLP179 T00890006

More Conditions Fewer Conditions

10-Day Weather Forecast

Almanac

Astronomy

Apr. 23, 2014 Rise Set
Actual Time 6:20 AM CDT 7:57 PM CDT
Civil Twilight 5:51 AM CDT 8:26 PM CDT
Nautical Twilight 5:17 AM CDT 9:00 PM CDT
Astronomical Twilight 4:40 AM CDT 9:38 PM CDT
Moon 2:53 AM CDT 2:05 PM CDT
Length of Visible Light 14h 34m
Length of Day
13h 36m
Tomorrow will be 2m 24s longer.
Last Quarter, 39% of the Moon is Illuminated
Today
Last Quarter
Apr 29
New
May 6
First Quarter
May 14
Full
May 21
Last Quarter

Today's Extremes

State Highs State Lows

Community

  • April Sunset
    April Sunset
  • Waiting..
    Waiting..
  • Sunset...
    Sunset...
  • Happy outdoor day
    Happy outdoor day
  • mystic afternoon....
    mystic afternoon....

WunderPhotos

Upload Photos

1,704,233 photos uploaded!

WunderBlogs® & News

By Dr. Jeff Masters
Director of Meteorology, Weather Underground
By Kari Strenfel
Meteorologist, Weather Underground
By Christopher C. Burt
Weather Historian, Weather Underground
April 23, 2014
April 22, 2014
April 22, 2014

Nearby

Snow Depth

Station Depth Elevation
No new snow has been reported.

Coastal Water Temperatures

Place Temperature
No Stations Reporting

Earthquake Activity

City Distance Mag. Time & Date
No recent earthquake activity has been reported nearby.
Minimum magnitude displayed is 2.5.

Nearby Weather Stations

Station Location Temp. Windchill Dew Point Humidity Wind Precip. Elev Updated Type
La Plata, La Plata, MO 46.9 °F 47 °F 34 °F 60% NE  at  1.6 mph 0.00 in / hr 928 ft 2:39 AM CDT Rapid Fire
Lancaster, MO 48.2 °F 48 °F 35 °F 61% NE  at  0.0 mph - / hr 915 ft 2:28 AM CDT Normal
RAWS ATLANTA MO MO, Atlanta, MO 46 °F 46 °F 35 °F 65% ENE  at  3 mph 0.00 in / hr 839 ft 1:13 AM CDT MADIS

Show More Stations Show Fewer Stations

What do you think?

We're not finished. Please let us know what you like, what you don't like, and what you are still missing.